Time;durP1;ratioP1;P1;durP2;ratioP2;P2;SDS_P1;SDS_P2;PMS_P1;PMS_P2;Temp;Humidity;BMP_temperature;BMP_pressure;BME280_temperature;BME280_humidity;BME280_pressure;Samples;Min_cycle;Max_cycle;Signal;HPM_P1;HPM_P2
2023/06/30 00:00:08;;;;;;;4.60;4.30;;;;;;;16.26;72.45;94999.78;5114724;28;20208;-67
2023/06/30 00:02:35;;;;;;;4.30;4.03;;;;;;;16.24;72.87;95002.16;5114997;28;20195;-67
2023/06/30 00:05:06;;;;;;;4.75;4.43;;;;;;;16.28;72.49;95002.19;5115623;28;20208;-68
2023/06/30 00:07:35;;;;;;;4.95;4.43;;;;;;;16.19;73.02;95005.31;5115653;28;20203;-68
2023/06/30 00:10:02;;;;;;;4.68;4.38;;;;;;;16.04;72.43;95009.22;5115298;28;20231;-68
2023/06/30 00:12:31;;;;;;;4.60;4.18;;;;;;;15.94;72.71;95004.38;5116146;28;20286;-68
2023/06/30 00:14:59;;;;;;;4.57;4.18;;;;;;;15.90;72.75;95001.59;5115627;28;20248;-68
2023/06/30 00:17:30;;;;;;;4.55;4.15;;;;;;;15.90;72.77;95012.72;5115592;28;20240;-68
2023/06/30 00:19:59;;;;;;;4.80;4.38;;;;;;;15.94;73.51;95002.44;5115486;28;20194;-68
2023/06/30 00:22:28;;;;;;;5.35;4.95;;;;;;;15.99;73.64;95009.59;5115225;28;20193;-68
2023/06/30 00:24:58;;;;;;;5.35;4.90;;;;;;;16.00;72.89;95002.84;5115478;28;20212;-68
2023/06/30 00:27:26;;;;;;;5.25;4.85;;;;;;;15.99;73.89;95012.38;5114612;28;20547;-68
2023/06/30 00:29:55;;;;;;;5.22;4.72;;;;;;;16.02;73.64;94998.50;5115528;28;20199;-68
2023/06/30 00:32:24;;;;;;;4.95;4.55;;;;;;;16.01;74.16;94999.69;5115154;28;20210;-68
2023/06/30 00:34:52;;;;;;;5.18;4.78;;;;;;;16.02;74.07;95006.84;5115586;28;20701;-68
2023/06/30 00:37:20;;;;;;;5.30;4.97;;;;;;;15.97;74.39;95001.63;5119293;28;20269;-68
2023/06/30 00:39:50;;;;;;;5.35;4.60;;;;;;;15.95;74.48;95006.00;5118581;28;20263;-68
2023/06/30 00:42:18;;;;;;;5.47;4.97;;;;;;;15.97;74.37;95003.63;5119413;28;20184;-68
2023/06/30 00:44:46;;;;;;;5.15;4.75;;;;;;;15.95;74.37;95008.78;5119333;28;20204;-68
2023/06/30 00:47:14;;;;;;;5.13;4.72;;;;;;;15.86;74.46;95007.13;5118724;28;20228;-68
2023/06/30 00:49:42;;;;;;;5.22;4.82;;;;;;;15.87;74.66;95007.97;5119324;28;20180;-68
2023/06/30 00:52:09;;;;;;;5.40;5.00;;;;;;;15.89;74.89;95008.34;5118956;28;20191;-68
2023/06/30 00:54:37;;;;;;;6.07;5.47;;;;;;;15.85;74.24;95002.75;5118247;28;20493;-68
2023/06/30 00:57:07;;;;;;;5.40;5.00;;;;;;;15.82;74.00;95008.31;5119093;28;20192;-68
2023/06/30 00:59:35;;;;;;;5.22;4.70;;;;;;;15.79;73.49;95003.50;5119172;28;20252;-68
2023/06/30 01:02:08;;;;;;;5.40;5.00;;;;;;;15.75;73.75;95003.50;5117816;28;20260;-69
2023/06/30 01:04:40;;;;;;;5.30;4.78;;;;;;;15.76;74.55;95007.06;5118938;28;20215;-69
2023/06/30 01:07:13;;;;;;;5.43;4.93;;;;;;;15.74;74.54;95001.09;5118950;28;20188;-69
2023/06/30 01:09:46;;;;;;;5.40;5.00;;;;;;;15.77;74.12;95008.69;5118910;28;20195;-69
2023/06/30 01:12:17;;;;;;;5.38;4.95;;;;;;;15.76;73.83;95010.66;5118750;28;20264;-69
2023/06/30 01:14:46;;;;;;;5.10;4.60;;;;;;;15.75;74.20;95005.47;5118757;28;20275;-68
2023/06/30 01:17:16;;;;;;;5.13;4.72;;;;;;;15.77;74.30;95006.69;5118852;28;20206;-68
2023/06/30 01:19:45;;;;;;;5.55;5.00;;;;;;;15.71;74.71;95001.88;5117904;28;20200;-68
2023/06/30 01:22:20;;;;;;;5.07;4.57;;;;;;;15.61;74.51;95003.38;5117737;28;20276;-69
2023/06/30 01:24:48;;;;;;;5.28;4.88;;;;;;;15.57;75.05;94999.75;5118282;28;20210;-68
2023/06/30 01:27:21;;;;;;;5.32;4.93;;;;;;;15.55;74.96;95000.16;5117997;28;20192;-68
2023/06/30 01:29:50;;;;;;;5.45;4.78;;;;;;;15.56;75.14;94996.19;5118261;28;20200;-68
2023/06/30 01:32:17;;;;;;;8.32;4.88;;;;;;;15.56;74.55;94992.63;5117723;28;20264;-68
2023/06/30 01:34:44;;;;;;;5.20;4.80;;;;;;;15.49;74.99;94984.22;5118169;27;20260;-68
2023/06/30 01:37:12;;;;;;;5.50;5.00;;;;;;;15.39;75.29;94983.75;5118461;28;20192;-67
2023/06/30 01:39:40;;;;;;;5.38;4.97;;;;;;;15.33;75.34;94984.53;5118058;28;20199;-67
2023/06/30 01:42:08;;;;;;;5.05;4.72;;;;;;;15.31;75.12;94981.31;5117546;28;20594;-68
2023/06/30 01:44:36;;;;;;;5.35;4.53;;;;;;;15.32;75.58;94977.34;5117923;28;20204;-68
2023/06/30 01:47:05;;;;;;;5.25;4.78;;;;;;;15.18;75.45;94975.28;5115308;28;20243;-68
2023/06/30 01:49:33;;;;;;;4.93;4.60;;;;;;;15.08;75.45;94978.75;5117466;28;20630;-68
2023/06/30 01:52:00;;;;;;;5.13;4.45;;;;;;;15.03;75.28;94973.53;5118173;28;20534;-68
2023/06/30 01:54:29;;;;;;;6.07;4.68;;;;;;;15.06;75.64;94981.13;5117259;28;20211;-68
2023/06/30 01:56:58;;;;;;;5.85;4.72;;;;;;;15.03;75.89;94974.38;5117675;28;20196;-68
2023/06/30 01:59:26;;;;;;;5.90;4.95;;;;;;;15.09;76.15;94977.56;5117978;28;20214;-68
2023/06/30 02:01:56;;;;;;;5.10;4.47;;;;;;;15.11;75.81;94969.66;5117881;28;20194;-68
2023/06/30 02:04:25;;;;;;;4.90;4.50;;;;;;;15.10;75.40;94968.84;5117503;28;20643;-68
2023/06/30 02:06:55;;;;;;;5.40;5.00;;;;;;;15.09;75.59;94975.59;5118030;28;20196;-68
2023/06/30 02:09:23;;;;;;;4.97;4.57;;;;;;;15.05;75.90;94977.53;5116595;28;20191;-68
2023/06/30 02:11:50;;;;;;;5.55;5.07;;;;;;;15.07;75.82;94983.53;5117765;28;20199;-68
2023/06/30 02:14:17;;;;;;;5.20;4.80;;;;;;;15.07;75.55;94983.53;5116367;28;20200;-68
2023/06/30 02:16:44;;;;;;;4.93;4.57;;;;;;;15.07;76.08;94980.75;5117231;28;20302;-69
2023/06/30 02:19:14;;;;;;;5.30;4.80;;;;;;;15.02;75.69;94985.84;5117630;28;20249;-69
2023/06/30 02:21:42;;;;;;;5.13;4.70;;;;;;;15.01;76.24;94987.03;5117571;28;20191;-69
2023/06/30 02:24:12;;;;;;;5.45;4.95;;;;;;;14.94;76.16;94990.53;5116479;28;20248;-69
2023/06/30 02:26:40;;;;;;;6.10;5.22;;;;;;;14.89;76.50;94980.59;5117544;28;20225;-69
2023/06/30 02:29:08;;;;;;;5.57;5.05;;;;;;;14.90;76.19;94992.50;5117381;28;20190;-69
2023/06/30 02:31:36;;;;;;;7.35;6.28;;;;;;;14.84;76.43;94988.47;5117401;28;20184;-68
2023/06/30 02:34:03;;;;;;;7.25;6.72;;;;;;;14.79;76.29;94986.03;5117386;28;20184;-68
2023/06/30 02:36:31;;;;;;;8.20;7.45;;;;;;;14.77;76.38;94985.63;5117218;28;20311;-68
2023/06/30 02:38:59;;;;;;;7.88;7.18;;;;;;;14.78;77.40;94993.56;5117185;28;20180;-68
2023/06/30 02:41:27;;;;;;;8.50;7.70;;;;;;;14.83;77.06;94984.88;5116319;28;20269;-68
2023/06/30 02:43:54;;;;;;;9.48;8.13;;;;;;;14.77;77.09;94985.63;5116977;28;20195;-68
2023/06/30 02:46:21;;;;;;;9.18;8.32;;;;;;;14.80;77.18;94982.06;5116878;28;20236;-68
2023/06/30 02:48:49;;;;;;;8.52;7.65;;;;;;;14.84;76.40;94986.47;5117016;28;20180;-68
2023/06/30 02:51:17;;;;;;;8.32;7.55;;;;;;;14.69;75.79;94987.53;5116318;28;20191;-68
2023/06/30 02:53:45;;;;;;;7.65;6.90;;;;;;;14.60;76.29;94975.94;5115943;28;20206;-68
2023/06/30 02:56:13;;;;;;;7.55;6.72;;;;;;;14.63;76.69;94978.75;5115913;28;20191;-68
2023/06/30 02:58:40;;;;;;;9.13;6.93;;;;;;;14.63;76.82;94978.75;5115567;28;20202;-68
2023/06/30 03:01:08;;;;;;;7.53;6.72;;;;;;;14.57;76.92;94983.06;5116273;28;20196;-68
2023/06/30 03:03:36;;;;;;;6.90;6.30;;;;;;;14.64;77.08;94979.56;5115551;28;20184;-68
2023/06/30 03:06:03;;;;;;;7.10;6.40;;;;;;;14.65;76.46;94973.59;5116476;28;20215;-65
2023/06/30 03:08:31;;;;;;;8.48;6.43;;;;;;;14.65;76.53;94973.59;5115820;28;20203;-65
2023/06/30 03:11:01;;;;;;;10.13;6.75;;;;;;;14.69;76.25;94977.22;5115887;28;20199;-65
2023/06/30 03:13:29;;;;;;;7.40;6.53;;;;;;;14.66;76.96;94980.75;5115575;28;20192;-65
2023/06/30 03:15:56;;;;;;;8.88;6.65;;;;;;;14.51;76.61;94973.47;5114712;28;20207;-67
2023/06/30 03:18:23;;;;;;;6.30;5.80;;;;;;;14.48;76.93;94970.63;5116036;28;20264;-65
2023/06/30 03:20:50;;;;;;;7.82;6.10;;;;;;;14.49;77.01;94959.16;5115418;28;20252;-65
2023/06/30 03:23:19;;;;;;;6.63;5.95;;;;;;;14.55;77.35;94979.03;5116386;28;20245;-65
2023/06/30 03:25:47;;;;;;;6.32;5.80;;;;;;;14.57;77.46;94977.50;5116281;28;20208;-64
2023/06/30 03:28:17;;;;;;;5.90;5.40;;;;;;;14.63;77.51;94977.94;5116175;28;20230;-64
2023/06/30 03:30:46;;;;;;;5.97;5.32;;;;;;;14.59;76.84;94975.13;5116205;28;20188;-65
2023/06/30 03:33:13;;;;;;;5.35;4.93;;;;;;;14.59;76.95;94975.13;5116103;28;20272;-65
2023/06/30 03:35:40;;;;;;;6.05;5.57;;;;;;;14.59;76.99;94972.34;5116130;28;20180;-65
2023/06/30 03:38:08;;;;;;;6.03;5.53;;;;;;;14.58;77.27;94979.09;5116065;28;20203;-65
2023/06/30 03:40:37;;;;;;;7.55;5.50;;;;;;;14.63;77.46;94977.94;5115668;28;20195;-65
2023/06/30 03:43:06;;;;;;;5.75;5.35;;;;;;;14.63;77.79;94975.97;5116034;28;20203;-65
2023/06/30 03:45:37;;;;;;;6.47;5.90;;;;;;;14.62;77.70;94977.13;5114488;28;20266;-65
2023/06/30 03:48:04;;;;;;;5.82;5.40;;;;;;;14.63;77.37;94984.31;5115712;28;20184;-65
2023/06/30 03:50:32;;;;;;;6.35;5.50;;;;;;;14.62;77.39;94979.91;5097899;28;20264;-65
2023/06/30 03:53:00;;;;;;;7.60;5.95;;;;;;;14.61;77.44;94983.09;5115762;28;20183;-65
2023/06/30 03:55:31;;;;;;;6.63;5.90;;;;;;;14.64;77.50;94988.69;5114701;28;20604;-65
2023/06/30 03:57:58;;;;;;;5.63;5.20;;;;;;;14.64;77.13;94979.56;5114885;28;20257;-65
2023/06/30 04:00:26;;;;;;;5.47;5.00;;;;;;;14.66;77.10;94991.84;5115496;28;20187;-66
2023/06/30 04:02:56;;;;;;;6.28;5.70;;;;;;;14.71;77.17;94989.94;5115795;28;20183;-65
2023/06/30 04:05:23;;;;;;;5.82;5.43;;;;;;;14.70;76.96;94989.09;5114768;28;20219;-71
2023/06/30 04:07:51;;;;;;;6.13;5.63;;;;;;;14.68;76.84;94991.50;5115823;28;20187;-69
2023/06/30 04:10:19;;;;;;;7.85;6.57;;;;;;;14.67;77.99;94992.69;5114526;28;20207;-65
2023/06/30 04:12:47;;;;;;;6.68;6.05;;;;;;;14.67;77.70;94998.22;5114722;28;20203;-66
2023/06/30 04:15:15;;;;;;;5.95;5.50;;;;;;;14.70;77.55;94991.88;5114806;28;20203;-65
2023/06/30 04:17:43;;;;;;;6.75;5.82;;;;;;;14.74;76.82;94998.28;5114953;28;20264;-65
2023/06/30 04:20:16;;;;;;;6.47;5.88;;;;;;;14.74;77.40;94986.38;5115516;28;20217;-65
2023/06/30 04:22:44;;;;;;;6.25;5.65;;;;;;;14.73;77.20;94991.13;5114831;28;20195;-66
2023/06/30 04:25:12;;;;;;;6.68;6.07;;;;;;;14.74;78.24;94987.16;5115515;28;20203;-66
2023/06/30 04:27:39;;;;;;;7.57;6.10;;;;;;;14.76;78.01;94987.59;5115613;28;20260;-65
2023/06/30 04:30:08;;;;;;;6.35;5.93;;;;;;;14.79;77.45;94989.63;5115451;28;20241;-65
2023/06/30 04:32:36;;;;;;;6.97;6.25;;;;;;;14.82;77.68;94983.31;5115250;28;20510;-67
2023/06/30 04:35:07;;;;;;;6.30;5.70;;;;;;;14.82;77.57;94983.31;5115164;28;20187;-66
2023/06/30 04:37:40;;;;;;;6.65;6.10;;;;;;;14.88;78.44;94983.72;5114504;28;20203;-65
2023/06/30 04:40:09;;;;;;;6.43;6.03;;;;;;;14.91;78.60;94982.97;5115181;28;20203;-65
2023/06/30 04:42:38;;;;;;;6.78;6.20;;;;;;;14.90;78.02;94973.84;5115370;28;20192;-65
2023/06/30 04:45:07;;;;;;;8.07;7.43;;;;;;;14.92;78.19;94974.28;5115055;28;20212;-65
2023/06/30 04:47:35;;;;;;;7.25;6.45;;;;;;;14.97;78.52;94983.44;5113302;28;20212;-65
2023/06/30 04:50:02;;;;;;;7.20;6.53;;;;;;;15.01;78.39;94984.25;5115086;28;20195;-66
2023/06/30 04:52:31;;;;;;;6.68;6.07;;;;;;;15.03;77.89;94981.88;5115937;28;20188;-65
2023/06/30 04:55:01;;;;;;;7.15;6.55;;;;;;;15.06;77.54;94983.91;5115341;28;20191;-65
2023/06/30 04:57:30;;;;;;;6.95;6.43;;;;;;;15.10;77.84;94985.50;5114542;28;20192;-65
2023/06/30 04:59:56;;;;;;;7.30;6.60;;;;;;;15.15;77.73;94989.94;5114997;28;20235;-67
2023/06/30 05:02:24;;;;;;;7.22;6.53;;;;;;;15.14;77.84;94986.38;5114768;28;20206;-66
2023/06/30 05:04:53;;;;;;;7.32;6.80;;;;;;;15.18;77.77;94983.63;5115557;28;20257;-66
2023/06/30 05:07:21;;;;;;;7.45;6.78;;;;;;;15.26;77.46;94984.47;5114295;28;20215;-66
2023/06/30 05:09:48;;;;;;;9.57;7.28;;;;;;;15.29;78.14;94989.25;5114499;28;20199;-67
2023/06/30 05:12:16;;;;;;;8.43;6.75;;;;;;;15.27;77.32;94986.84;5114268;28;20207;-66
2023/06/30 05:14:44;;;;;;;7.28;6.25;;;;;;;15.31;77.61;94987.66;5114843;28;20728;-66
2023/06/30 05:17:11;;;;;;;7.82;7.15;;;;;;;15.38;77.25;94981.38;5114150;28;20203;-66
2023/06/30 05:19:38;;;;;;;7.63;6.97;;;;;;;15.42;77.13;94990.53;5114223;28;20211;-66
2023/06/30 05:22:06;;;;;;;8.27;7.50;;;;;;;15.45;77.76;94981.44;5116767;28;20207;-66
2023/06/30 05:24:34;;;;;;;7.10;6.50;;;;;;;15.46;77.70;94982.22;5118319;28;20200;-66
2023/06/30 05:27:02;;;;;;;7.03;6.40;;;;;;;15.49;77.02;94979.47;5117416;28;20666;-66
2023/06/30 05:29:32;;;;;;;7.10;6.50;;;;;;;15.54;77.31;94987.47;5117602;28;20542;-66
2023/06/30 05:31:59;;;;;;;7.43;6.72;;;;;;;15.61;76.99;94986.69;5117606;28;20249;-66
2023/06/30 05:34:28;;;;;;;7.40;6.80;;;;;;;15.65;76.71;94990.31;5117199;28;20198;-66
2023/06/30 05:36:57;;;;;;;7.30;6.70;;;;;;;15.68;76.28;94989.53;5118644;28;20188;-66
2023/06/30 05:39:25;;;;;;;6.80;6.22;;;;;;;15.70;75.76;94991.94;5117336;28;20260;-66
2023/06/30 05:41:52;;;;;;;7.80;7.20;;;;;;;15.73;75.98;94993.97;5118012;28;20485;-66
2023/06/30 05:44:20;;;;;;;6.93;6.40;;;;;;;15.75;76.08;94994.34;5117566;28;20192;-66
2023/06/30 05:46:50;;;;;;;7.35;6.82;;;;;;;15.79;76.13;94989.59;5117669;28;20570;-66
2023/06/30 05:49:18;;;;;;;7.43;6.57;;;;;;;15.82;76.01;94995.19;5117242;28;20215;-66
2023/06/30 05:51:46;;;;;;;7.68;7.03;;;;;;;15.88;75.54;94999.22;5118182;28;20188;-66
2023/06/30 05:54:13;;;;;;;7.40;6.82;;;;;;;15.93;76.00;95003.59;5116828;28;20200;-66
2023/06/30 05:56:40;;;;;;;8.23;7.22;;;;;;;15.98;75.97;95002.44;5118024;28;20188;-66
2023/06/30 05:59:10;;;;;;;8.80;7.97;;;;;;;16.05;76.04;95003.28;5117992;28;20194;-66
2023/06/30 06:01:39;;;;;;;7.65;6.88;;;;;;;16.11;75.27;94995.34;5117676;28;20192;-66
2023/06/30 06:04:09;;;;;;;7.57;6.97;;;;;;;16.17;75.49;95004.91;5117864;28;20507;-66
2023/06/30 06:06:37;;;;;;;8.32;7.47;;;;;;;16.20;75.44;95004.16;5116630;28;20261;-66
2023/06/30 06:09:05;;;;;;;7.80;7.20;;;;;;;16.24;76.08;95004.97;5117951;28;20196;-66
2023/06/30 06:11:33;;;;;;;8.38;7.63;;;;;;;16.30;76.58;95005.38;5117016;28;20199;-66
2023/06/30 06:14:00;;;;;;;8.07;7.47;;;;;;;16.34;75.89;95003.41;5116740;28;20196;-66
2023/06/30 06:16:27;;;;;;;7.90;7.20;;;;;;;16.40;75.74;95001.03;5117135;28;20192;-66
2023/06/30 06:18:55;;;;;;;7.78;7.07;;;;;;;16.48;75.82;94999.88;5116636;28;20199;-66
2023/06/30 06:21:26;;;;;;;7.68;6.97;;;;;;;16.54;75.67;94992.72;5116721;28;20196;-66
2023/06/30 06:23:53;;;;;;;8.20;7.18;;;;;;;16.59;75.72;94995.94;5116545;28;20208;-66
2023/06/30 06:26:21;;;;;;;8.55;7.78;;;;;;;16.62;75.45;94994.34;5099120;28;20589;-66
2023/06/30 06:28:49;;;;;;;7.95;7.18;;;;;;;16.67;75.09;94993.19;5117504;28;20207;-66
2023/06/30 06:31:18;;;;;;;8.52;7.72;;;;;;;16.72;74.91;94996.38;5117394;28;20573;-66
2023/06/30 06:33:46;;;;;;;8.30;7.60;;;;;;;16.76;75.04;94985.25;5116567;28;20200;-66
2023/06/30 06:36:14;;;;;;;8.15;7.55;;;;;;;16.78;73.82;94994.81;5116217;28;20198;-66
2023/06/30 06:38:42;;;;;;;7.72;7.13;;;;;;;16.86;73.69;94994.84;5117246;28;20184;-66
2023/06/30 06:41:10;;;;;;;8.90;8.20;;;;;;;16.89;73.54;94992.06;5116586;28;20196;-66
2023/06/30 06:43:37;;;;;;;8.65;7.95;;;;;;;16.95;74.35;94987.66;5116301;28;20208;-66
2023/06/30 06:46:03;;;;;;;8.38;7.70;;;;;;;16.98;73.17;94986.88;5116458;28;20667;-66
2023/06/30 06:48:31;;;;;;;8.60;7.90;;;;;;;17.02;72.87;94987.69;5116355;28;20195;-66
2023/06/30 06:51:01;;;;;;;8.00;7.40;;;;;;;17.06;71.72;94991.25;5116163;28;20196;-66
2023/06/30 06:53:30;;;;;;;8.13;7.53;;;;;;;17.08;71.35;94982.53;5115871;28;20200;-66
2023/06/30 06:55:58;;;;;;;7.97;7.22;;;;;;;17.13;71.14;94996.06;5116870;27;20196;-66
2023/06/30 06:58:31;;;;;;;8.52;6.80;;;;;;;17.18;71.28;94989.31;5116597;28;20180;-66
2023/06/30 07:00:58;;;;;;;7.75;7.00;;;;;;;17.21;71.67;94986.53;5115906;28;20207;-66
2023/06/30 07:03:25;;;;;;;7.25;6.65;;;;;;;17.24;70.89;94980.13;5115960;28;20203;-66
2023/06/30 07:05:52;;;;;;;7.85;7.13;;;;;;;17.29;70.95;94987.31;5116537;28;20216;-66
2023/06/30 07:08:20;;;;;;;6.63;6.20;;;;;;;17.34;70.78;94984.13;5115680;28;20191;-66
2023/06/30 07:10:50;;;;;;;7.10;6.50;;;;;;;17.38;70.07;94992.47;5115361;28;20249;-65
2023/06/30 07:13:20;;;;;;;7.82;7.22;;;;;;;17.43;69.98;94978.13;5115799;28;20232;-66
2023/06/30 07:15:50;;;;;;;8.10;7.38;;;;;;;17.52;69.49;94978.53;5115570;28;20262;-66
2023/06/30 07:18:18;;;;;;;7.90;6.72;;;;;;;17.58;69.43;94970.56;5116385;28;20184;-66
2023/06/30 07:20:49;;;;;;;9.32;8.52;;;;;;;17.61;69.59;94969.75;5116382;28;20280;-66
2023/06/30 07:23:16;;;;;;;8.52;7.82;;;;;;;17.66;69.16;94964.56;5115601;28;20212;-66
2023/06/30 07:25:44;;;;;;;8.60;7.80;;;;;;;17.72;69.73;94967.72;5116320;28;20244;-66
2023/06/30 07:28:12;;;;;;;8.88;8.10;;;;;;;17.78;70.81;94964.16;5116314;28;20238;-66
2023/06/30 07:30:42;;;;;;;8.88;8.07;;;;;;;17.86;69.93;94964.16;5116213;28;20188;-66
2023/06/30 07:33:12;;;;;;;7.95;7.35;;;;;;;17.89;69.37;94963.34;5115732;28;20531;-66
2023/06/30 07:35:40;;;;;;;9.80;8.27;;;;;;;17.93;69.53;94962.13;5115842;28;20589;-66
2023/06/30 07:38:09;;;;;;;9.18;8.30;;;;;;;17.98;69.02;94963.75;5116095;28;20188;-66
2023/06/30 07:40:37;;;;;;;8.90;8.10;;;;;;;18.01;68.87;94965.69;5115288;28;20223;-66
2023/06/30 07:43:05;;;;;;;9.32;7.90;;;;;;;18.02;68.53;94964.53;5116074;28;20191;-66
2023/06/30 07:45:33;;;;;;;8.00;7.30;;;;;;;18.05;68.02;94963.72;5115044;28;20223;-66
2023/06/30 07:48:01;;;;;;;9.77;9.02;;;;;;;18.09;67.79;94961.72;5115548;28;20200;-66
2023/06/30 07:50:31;;;;;;;8.85;8.05;;;;;;;18.20;67.79;94962.47;5114971;28;20187;-66
2023/06/30 07:53:02;;;;;;;7.70;7.03;;;;;;;18.25;66.33;94967.63;5115878;28;20278;-66
2023/06/30 07:55:32;;;;;;;6.88;6.25;;;;;;;18.34;65.82;94974.75;5115575;28;20508;-66
2023/06/30 07:57:59;;;;;;;5.60;5.20;;;;;;;18.40;63.81;94956.38;5114873;28;20223;-66
2023/06/30 08:00:29;;;;;;;5.88;5.38;;;;;;;18.42;62.05;94959.59;5116047;28;20210;-66
2023/06/30 08:02:57;;;;;;;6.15;5.63;;;;;;;18.43;61.96;94958.38;5114907;28;20195;-66
2023/06/30 08:05:25;;;;;;;5.47;5.07;;;;;;;18.48;61.81;94958.75;5114933;28;20258;-66
2023/06/30 08:07:52;;;;;;;5.57;5.00;;;;;;;18.56;61.27;94962.31;5114886;28;20207;-66
2023/06/30 08:10:20;;;;;;;5.45;4.43;;;;;;;18.64;62.58;94954.69;5115611;28;20191;-66
2023/06/30 08:12:48;;;;;;;5.75;5.18;;;;;;;18.76;62.58;94952.22;5115622;28;20199;-66
2023/06/30 08:15:16;;;;;;;5.63;5.13;;;;;;;18.89;62.72;94951.75;5115632;28;20194;-66
2023/06/30 08:17:44;;;;;;;5.13;4.72;;;;;;;18.95;61.38;94947.31;5114829;28;20198;-66
2023/06/30 08:20:12;;;;;;;5.93;5.40;;;;;;;18.97;60.14;94950.50;5115547;28;20252;-66
2023/06/30 08:22:42;;;;;;;5.45;4.38;;;;;;;19.03;59.92;94942.47;5114942;28;20208;-66
2023/06/30 08:25:10;;;;;;;5.32;4.82;;;;;;;19.07;61.42;94934.88;5115634;28;20249;-66
2023/06/30 08:27:36;;;;;;;4.63;4.32;;;;;;;19.22;60.28;94937.13;5115599;28;20220;-66
2023/06/30 08:30:06;;;;;;;4.95;4.65;;;;;;;19.30;60.22;94932.28;5114623;28;20252;-66
2023/06/30 08:32:34;;;;;;;5.53;4.28;;;;;;;19.36;60.90;94927.81;5115241;28;20191;-66
2023/06/30 08:35:02;;;;;;;5.53;5.13;;;;;;;19.36;59.34;94927.03;5115546;28;20200;-66
2023/06/30 08:37:31;;;;;;;5.88;4.95;;;;;;;19.40;61.05;94919.41;5114715;28;20195;-66
2023/06/30 08:39:59;;;;;;;5.60;5.15;;;;;;;19.47;58.05;94919.34;5097342;28;20191;-66
2023/06/30 08:42:31;;;;;;;5.13;4.72;;;;;;;19.58;62.13;94914.44;5114486;28;20226;-66
2023/06/30 08:45:00;;;;;;;5.20;4.70;;;;;;;19.66;58.86;94907.59;5115404;28;20210;-66
2023/06/30 08:47:28;;;;;;;5.57;5.15;;;;;;;19.68;60.01;94910.78;5111939;28;20671;-66
2023/06/30 08:49:55;;;;;;;6.03;5.53;;;;;;;19.74;57.87;94907.50;5115384;28;20188;-66
2023/06/30 08:52:23;;;;;;;5.70;5.20;;;;;;;19.82;58.92;94909.81;5114483;28;20202;-66
2023/06/30 08:54:51;;;;;;;6.35;5.85;;;;;;;19.91;61.23;94907.31;5114368;28;20203;-66
2023/06/30 08:57:21;;;;;;;5.80;5.30;;;;;;;20.03;61.20;94903.16;5118746;28;20180;-66
2023/06/30 08:59:50;;;;;;;5.78;5.00;;;;;;;20.05;58.31;94897.97;5119515;28;20179;-66
2023/06/30 09:02:18;;;;;;;5.68;5.18;;;;;;;20.07;57.67;94901.13;5118165;28;20218;-66
2023/06/30 09:04:49;;;;;;;5.90;5.50;;;;;;;20.31;58.46;94895.63;5118966;28;20496;-66
2023/06/30 09:07:21;;;;;;;5.80;5.40;;;;;;;20.52;60.48;94892.56;5118765;28;20220;-66
2023/06/30 09:09:50;;;;;;;5.50;5.10;;;;;;;20.64;56.61;94897.59;5118780;28;20184;-67
2023/06/30 09:12:18;;;;;;;5.63;5.13;;;;;;;20.69;58.70;94896.31;5117959;28;20207;-66
2023/06/30 09:14:49;;;;;;;5.68;5.25;;;;;;;20.79;56.67;94903.78;5118957;28;20203;-66
2023/06/30 09:17:17;;;;;;;6.00;5.50;;;;;;;20.88;56.25;94894.88;5118077;28;20204;-66
2023/06/30 09:19:45;;;;;;;5.93;5.47;;;;;;;20.96;56.89;94889.94;5118069;28;20195;-66
2023/06/30 09:22:16;;;;;;;6.65;6.05;;;;;;;21.09;58.09;94890.91;5117892;28;20225;-66
2023/06/30 09:24:45;;;;;;;5.88;5.35;;;;;;;21.20;57.59;94897.13;5118923;28;20190;-67
2023/06/30 09:27:13;;;;;;;6.03;5.53;;;;;;;21.26;54.44;94895.44;5118669;28;20219;-67
2023/06/30 09:29:40;;;;;;;5.70;5.30;;;;;;;21.34;55.00;94888.50;5117738;28;20191;-67
2023/06/30 09:32:09;;;;;;;6.25;5.75;;;;;;;21.47;58.39;94883.09;5118307;28;20180;-67
2023/06/30 09:34:37;;;;;;;6.65;6.15;;;;;;;21.58;57.22;94877.28;5117585;28;20207;-66
2023/06/30 09:37:09;;;;;;;8.40;5.80;;;;;;;21.73;55.76;94878.59;5117444;28;20233;-66
2023/06/30 09:39:41;;;;;;;6.10;5.50;;;;;;;21.84;55.52;94884.00;5117716;28;20256;-66
2023/06/30 09:42:16;;;;;;;5.80;5.40;;;;;;;21.96;56.86;94874.94;5118011;28;20631;-66
2023/06/30 09:44:42;;;;;;;6.00;5.43;;;;;;;22.09;55.72;94878.69;5118137;28;20199;-66
2023/06/30 09:47:12;;;;;;;6.63;5.47;;;;;;;22.20;57.19;94872.88;5117878;28;20236;-66
2023/06/30 09:49:43;;;;;;;6.03;5.50;;;;;;;22.32;56.71;94877.03;5117660;28;20216;-66
2023/06/30 09:52:10;;;;;;;6.50;6.00;;;;;;;22.45;56.57;94865.94;5117457;28;20203;-66
2023/06/30 09:54:38;;;;;;;6.50;5.75;;;;;;;22.51;54.09;94861.38;5118580;28;20203;-67
2023/06/30 09:57:07;;;;;;;6.63;6.10;;;;;;;22.57;54.20;94863.22;5117746;28;20191;-66
2023/06/30 09:59:35;;;;;;;6.10;5.60;;;;;;;22.63;57.37;94863.53;5116949;28;20207;-66
2023/06/30 10:02:02;;;;;;;7.18;6.57;;;;;;;22.76;59.35;94864.41;5117828;28;20187;-66
2023/06/30 10:04:32;;;;;;;6.10;5.70;;;;;;;22.82;54.32;94867.50;5118150;28;20180;-66
2023/06/30 10:07:00;;;;;;;5.97;5.55;;;;;;;22.74;52.40;94858.44;5117063;28;20594;-67
2023/06/30 10:09:31;;;;;;;6.38;5.85;;;;;;;22.78;56.22;94856.34;5117575;28;20279;-66
2023/06/30 10:11:58;;;;;;;6.68;6.18;;;;;;;22.76;51.42;94847.53;5117007;28;20223;-67
2023/06/30 10:14:28;;;;;;;6.65;5.97;;;;;;;22.78;56.35;94847.91;5117571;28;20200;-67
2023/06/30 10:16:57;;;;;;;6.65;6.05;;;;;;;22.93;56.05;94841.97;5116845;28;20503;-66
2023/06/30 10:19:26;;;;;;;6.93;6.43;;;;;;;23.06;53.36;94826.78;5118097;28;20210;-67
2023/06/30 10:21:57;;;;;;;6.60;5.88;;;;;;;23.11;53.25;94830.28;5117123;28;20203;-67
2023/06/30 10:24:27;;;;;;;6.90;6.30;;;;;;;23.22;53.97;94825.97;5117171;28;20209;-67
2023/06/30 10:26:55;;;;;;;6.55;5.95;;;;;;;23.34;53.90;94821.63;5116915;28;20211;-67
2023/06/30 10:29:23;;;;;;;6.40;5.80;;;;;;;23.41;52.64;94815.81;5117056;28;20199;-67
2023/06/30 10:31:51;;;;;;;6.55;5.95;;;;;;;23.53;54.81;94819.94;5116686;28;20203;-67
2023/06/30 10:34:19;;;;;;;7.53;6.93;;;;;;;23.62;52.98;94820.09;5117258;28;20207;-67
2023/06/30 10:36:49;;;;;;;7.05;6.55;;;;;;;23.72;53.97;94813.41;5116607;28;20290;-67
2023/06/30 10:39:20;;;;;;;6.53;6.03;;;;;;;23.80;53.09;94816.03;5117739;28;20184;-67
2023/06/30 10:41:48;;;;;;;6.85;6.35;;;;;;;23.85;53.15;94807.81;5116629;28;20614;-66
2023/06/30 10:44:19;;;;;;;6.05;5.45;;;;;;;23.89;49.85;94802.84;5116569;28;20184;-66
2023/06/30 10:46:52;;;;;;;6.72;6.22;;;;;;;23.95;53.27;94800.28;5117309;28;20231;-67
2023/06/30 10:49:29;;;;;;;7.03;6.30;;;;;;;24.07;52.18;94793.09;5117235;28;20213;-67
2023/06/30 10:51:59;;;;;;;6.75;6.15;;;;;;;24.13;51.62;94792.09;5116424;28;20202;-67
2023/06/30 10:54:28;;;;;;;6.53;5.95;;;;;;;24.19;51.71;94795.16;5117236;28;20230;-67
2023/06/30 10:57:07;;;;;;;7.88;6.40;;;;;;;24.22;49.80;94788.63;5117206;28;20184;-66
2023/06/30 10:59:39;;;;;;;7.07;6.57;;;;;;;24.23;52.67;94776.91;5115903;28;20198;-66
2023/06/30 11:02:32;;;;;;;7.88;7.25;;;;;;;24.30;54.01;94786.41;5115941;28;20195;-66
2023/06/30 11:05:19;;;;;;;7.93;7.22;;;;;;;24.36;51.93;94785.38;5096187;28;20272;-67
2023/06/30 11:07:48;;;;;;;7.35;6.65;;;;;;;24.48;51.90;94781.03;5115876;28;20594;-67
2023/06/30 11:10:28;;;;;;;7.03;6.32;;;;;;;24.52;49.10;94787.34;5115742;28;20287;-66
2023/06/30 11:12:57;;;;;;;9.05;8.15;;;;;;;24.61;50.38;94786.66;5116328;28;20187;-67
2023/06/30 11:15:38;;;;;;;8.13;7.18;;;;;;;24.61;47.80;94772.56;5115747;28;20196;-67
2023/06/30 11:18:07;;;;;;;6.55;6.05;;;;;;;24.63;48.16;94761.63;5116724;28;20257;-67
2023/06/30 11:20:37;;;;;;;7.72;7.13;;;;;;;24.64;49.06;94772.44;5116891;28;20217;-67
2023/06/30 11:23:07;;;;;;;6.75;6.13;;;;;;;24.66;46.54;94769.19;5116606;28;20200;-67
2023/06/30 11:25:40;;;;;;;7.05;6.55;;;;;;;24.71;49.38;94760.94;5116358;28;20259;-67
2023/06/30 11:28:12;;;;;;;7.35;6.65;;;;;;;24.74;47.34;94756.44;5115762;28;20268;-67
2023/06/30 11:30:40;;;;;;;6.63;6.10;;;;;;;24.80;45.61;94754.63;5116335;28;20260;-67
2023/06/30 11:33:08;;;;;;;7.35;6.75;;;;;;;24.81;47.87;94741.31;5116175;28;20188;-67
2023/06/30 11:35:37;;;;;;;6.55;6.03;;;;;;;24.89;47.26;94737.78;5115455;28;20202;-67
2023/06/30 11:38:04;;;;;;;6.80;6.30;;;;;;;24.97;47.61;94746.78;5116492;28;20267;-67
2023/06/30 11:40:32;;;;;;;7.28;6.68;;;;;;;24.99;47.33;94735.84;5115889;28;20203;-67